Time;durP1;ratioP1;P1;durP2;ratioP2;P2;SDS_P1;SDS_P2;PMS_P1;PMS_P2;Temp;Humidity;BMP_temperature;BMP_pressure;BME280_temperature;BME280_humidity;BME280_pressure;Samples;Min_cycle;Max_cycle;Signal;HPM_P1;HPM_P2
2020/12/27 19:38:17;;;;;;;32.10;19.25;;;;;;;-2.18;77.19;101270.08;1831420;78;21066;-70
2020/12/27 19:40:45;;;;;;;31.48;18.73;;;;;;;-2.21;77.26;101257.19;1829498;78;21875;-68
2020/12/27 19:43:13;;;;;;;31.60;19.90;;;;;;;-2.24;77.30;101260.65;1829283;78;21085;-68
2020/12/27 19:45:41;;;;;;;31.68;19.77;;;;;;;-2.25;77.33;101258.08;1829280;77;21082;-69
2020/12/27 19:48:09;;;;;;;26.48;15.40;;;;;;;-2.27;77.38;101258.11;1829211;78;21106;-69
2020/12/27 19:50:37;;;;;;;28.65;17.12;;;;;;;-2.26;77.38;101268.88;1830373;77;21063;-68
2020/12/27 19:53:08;;;;;;;34.83;21.17;;;;;;;-2.28;77.46;101271.07;1832751;77;21836;-70
2020/12/27 19:55:36;;;;;;;35.13;20.08;;;;;;;-2.31;77.46;101272.83;1834862;77;21201;-70
2020/12/27 19:58:04;;;;;;;47.15;27.50;;;;;;;-2.31;77.51;101276.70;1842050;77;21458;-70
2020/12/27 20:00:32;;;;;;;40.00;23.50;;;;;;;-2.34;77.54;101270.25;1839243;77;21652;-70
2020/12/27 20:03:00;;;;;;;44.53;25.08;;;;;;;-2.34;77.54;101271.98;1833351;77;21131;-72
2020/12/27 20:05:28;;;;;;;41.02;23.95;;;;;;;-2.35;77.55;101271.58;1834428;77;21738;-72
2020/12/27 20:07:56;;;;;;;40.60;24.40;;;;;;;-2.37;77.59;101268.16;1847913;76;21617;-72
2020/12/27 20:10:24;;;;;;;36.65;20.77;;;;;;;-2.38;77.62;101263.42;1782437;80;21134;-70
2020/12/27 20:12:54;;;;;;;26.30;16.42;;;;;;;-2.39;77.65;101260.42;1771646;80;21227;-71
2020/12/27 20:15:22;;;;;;;28.98;17.60;;;;;;;-2.38;77.76;101252.22;1770515;80;21202;-69
2020/12/27 20:17:49;;;;;;;25.65;15.32;;;;;;;-2.38;77.84;101255.66;1763458;80;22063;-71
2020/12/27 20:20:18;;;;;;;30.00;19.20;;;;;;;-2.38;77.89;101258.69;1763323;81;21193;-70
2020/12/27 20:22:46;;;;;;;25.65;16.42;;;;;;;-2.36;77.92;101261.66;1763327;80;21170;-70
2020/12/27 20:25:15;;;;;;;26.02;17.02;;;;;;;-2.35;77.93;101249.58;1766925;79;21419;-69
2020/12/27 20:27:45;;;;;;;21.37;13.93;;;;;;;-2.35;77.95;101259.49;1763334;81;21130;-72
2020/12/27 20:30:13;;;;;;;18.17;12.88;;;;;;;-2.33;77.96;101261.61;1763288;81;21889;-71
2020/12/27 20:32:43;;;;;;;22.77;15.60;;;;;;;-2.31;77.97;101262.48;1763149;81;21150;-73
2020/12/27 20:35:11;;;;;;;23.95;14.87;;;;;;;-2.31;77.97;101262.48;1763387;81;21590;-72
2020/12/27 20:37:39;;;;;;;25.90;16.42;;;;;;;-2.29;77.96;101266.77;1760816;81;21154;-71
2020/12/27 20:40:08;;;;;;;23.57;14.03;;;;;;;-2.29;77.95;101268.07;1837757;76;21201;-72
2020/12/27 20:42:36;;;;;;;25.75;17.65;;;;;;;-2.30;77.95;101265.92;1835263;77;22134;-71
2020/12/27 20:45:06;;;;;;;26.70;16.37;;;;;;;-2.31;77.96;101259.03;1773334;80;21126;-71
2020/12/27 20:47:34;;;;;;;26.87;17.52;;;;;;;-2.31;77.98;101257.30;1789489;79;21150;-71
2020/12/27 20:50:02;;;;;;;25.70;15.83;;;;;;;-2.31;77.99;101254.72;1740250;81;21202;-72
2020/12/27 20:52:32;;;;;;;29.92;18.10;;;;;;;-2.32;77.98;101253.01;1774826;80;21207;-71
2020/12/27 20:55:01;;;;;;;20.20;13.48;;;;;;;-2.32;77.98;101245.65;1759496;80;22134;-71
2020/12/27 20:57:29;;;;;;;24.20;14.80;;;;;;;-2.32;78.00;101242.66;1783212;79;22196;-72
2020/12/27 20:59:57;;;;;;;20.35;13.38;;;;;;;-2.33;78.01;101243.94;1788623;79;21162;-71
2020/12/27 21:02:26;;;;;;;19.62;12.55;;;;;;;-2.33;77.98;101246.09;1744534;79;21154;-71
2020/12/27 21:04:55;;;;;;;22.17;15.05;;;;;;;-2.32;77.92;101251.72;1837082;77;21126;-70
2020/12/27 21:07:22;;;;;;;18.50;11.65;;;;;;;-2.33;77.92;101241.36;1826985;77;22062;-71
2020/12/27 21:09:51;;;;;;;22.80;14.58;;;;;;;-2.35;77.92;101241.38;1830541;77;21197;-73
2020/12/27 21:12:18;;;;;;;19.12;10.95;;;;;;;-2.37;77.92;101237.11;1825282;78;21087;-71
2020/12/27 21:14:47;;;;;;;21.80;13.50;;;;;;;-2.38;77.90;101227.20;1834088;77;21118;-72
2020/12/27 21:17:16;;;;;;;16.40;11.65;;;;;;;-2.38;77.92;101214.70;1842763;77;21336;-71
2020/12/27 21:19:44;;;;;;;16.23;11.10;;;;;;;-2.39;77.94;101211.70;1842645;77;22024;-70
2020/12/27 21:22:12;;;;;;;19.00;12.55;;;;;;;-2.39;77.95;101216.87;1842723;77;21106;-72
2020/12/27 21:24:40;;;;;;;22.02;14.63;;;;;;;-2.41;77.96;101216.91;1841684;77;21134;-70
2020/12/27 21:27:10;;;;;;;21.77;14.03;;;;;;;-2.41;77.92;101215.61;1835554;77;21105;-69
2020/12/27 21:29:38;;;;;;;21.90;15.03;;;;;;;-2.44;77.88;101216.92;1834384;77;21135;-70
2020/12/27 21:32:05;;;;;;;26.65;15.32;;;;;;;-2.44;77.86;101218.20;1829972;77;22039;-71
2020/12/27 21:34:33;;;;;;;24.45;15.08;;;;;;;-2.44;77.85;101223.83;1831135;77;21062;-71
2020/12/27 21:37:02;;;;;;;26.00;15.63;;;;;;;-2.45;77.82;101229.44;1783688;79;21123;-70
2020/12/27 21:39:29;;;;;;;22.05;15.35;;;;;;;-2.45;77.83;101229.87;1777627;79;21111;-69
2020/12/27 21:41:57;;;;;;;22.17;15.48;;;;;;;-2.47;77.80;101223.44;1781439;80;21075;-67
2020/12/27 21:44:26;;;;;;;17.82;11.65;;;;;;;-2.48;77.79;101225.60;1766194;80;22066;-68
2020/12/27 21:46:55;;;;;;;20.08;13.05;;;;;;;-2.50;77.80;101222.19;1715112;82;21083;-66
2020/12/27 21:49:23;;;;;;;25.80;18.70;;;;;;;-2.50;77.81;101213.57;1781058;79;21063;-68
2020/12/27 21:51:50;;;;;;;21.82;14.55;;;;;;;-2.51;77.77;101206.66;1775271;79;21479;-68
2020/12/27 21:54:18;;;;;;;21.40;14.45;;;;;;;-2.52;77.76;101203.66;1764650;80;21142;-67
2020/12/27 21:56:45;;;;;;;19.50;14.83;;;;;;;-2.53;77.75;101211.86;1782645;80;22075;-67
2020/12/27 21:59:13;;;;;;;17.02;12.25;;;;;;;-2.54;77.76;101217.91;1764073;80;21071;-68
2020/12/27 22:01:41;;;;;;;16.42;11.83;;;;;;;-2.54;77.72;101211.88;1764393;80;21123;-68
2020/12/27 22:04:10;;;;;;;19.55;12.58;;;;;;;-2.56;77.74;101214.93;1764710;80;22933;-65
2020/12/27 22:06:38;;;;;;;17.48;12.00;;;;;;;-2.58;77.77;101224.00;1772328;80;21158;-72
2020/12/27 22:09:05;;;;;;;23.83;15.25;;;;;;;-2.58;77.78;101225.30;1772788;80;21937;-68
2020/12/27 22:11:34;;;;;;;21.40;13.08;;;;;;;-2.58;77.81;101225.30;1772767;80;21079;-66
2020/12/27 22:14:03;;;;;;;25.52;14.70;;;;;;;-2.57;77.89;101230.03;1764937;79;21118;-67
2020/12/27 22:16:31;;;;;;;27.45;16.97;;;;;;;-2.57;77.86;101228.30;1763432;81;21130;-72
2020/12/27 22:18:59;;;;;;;22.27;14.93;;;;;;;-2.56;77.87;101217.08;1713595;83;21058;-70
2020/12/27 22:21:27;;;;;;;16.35;10.98;;;;;;;-2.55;77.89;101205.85;1783705;80;24273;-71
2020/12/27 22:23:55;;;;;;;20.05;12.90;;;;;;;-2.52;77.89;101200.63;1723835;82;21140;-70
2020/12/27 22:26:24;;;;;;;16.17;11.15;;;;;;;-2.52;77.88;101196.75;1795903;79;21316;-66
2020/12/27 22:28:53;;;;;;;18.07;11.68;;;;;;;-2.54;77.87;101195.92;1785743;80;21032;-65
2020/12/27 22:31:21;;;;;;;20.40;13.45;;;;;;;-2.54;77.88;101192.05;1767795;80;21075;-69
2020/12/27 22:33:50;;;;;;;20.02;13.78;;;;;;;-2.53;77.88;101181.26;1769249;80;21831;-69
2020/12/27 22:36:21;;;;;;;18.50;13.40;;;;;;;-2.54;77.91;101179.11;1768849;80;21195;-67
2020/12/27 22:38:49;;;;;;;16.32;11.03;;;;;;;-2.54;77.89;101178.25;1764865;80;21198;-67
2020/12/27 22:41:16;;;;;;;15.23;11.18;;;;;;;-2.54;77.89;101173.08;1825858;76;21043;-67
2020/12/27 22:43:44;;;;;;;18.65;12.55;;;;;;;-2.55;77.92;101163.17;1852062;76;21188;-68
2020/12/27 22:46:13;;;;;;;19.82;12.35;;;;;;;-2.55;77.94;101155.42;1854723;77;21876;-67
2020/12/27 22:48:40;;;;;;;21.80;13.90;;;;;;;-2.55;77.94;101145.07;1849708;76;21553;-67
2020/12/27 22:51:15;;;;;;;20.00;13.13;;;;;;;-2.52;77.94;101140.28;1773715;81;21145;-67
2020/12/27 22:53:43;;;;;;;24.15;14.38;;;;;;;-2.50;77.92;101140.71;1796743;79;21083;-67
2020/12/27 22:56:12;;;;;;;17.92;12.43;;;;;;;-2.46;77.84;101144.09;1772314;80;21447;-67
2020/12/27 22:58:40;;;;;;;19.15;12.85;;;;;;;-2.42;77.80;101141.43;1835188;77;24272;-67
2020/12/27 23:01:08;;;;;;;25.10;17.10;;;;;;;-2.40;77.66;101145.31;1860558;76;21146;-67
2020/12/27 23:03:36;;;;;;;26.35;18.00;;;;;;;-2.39;77.58;101137.53;1868861;76;21023;-67
2020/12/27 23:06:04;;;;;;;22.73;15.15;;;;;;;-2.36;77.50;101132.74;1791669;80;22760;-67
2020/12/27 23:08:32;;;;;;;23.10;14.75;;;;;;;-2.34;77.42;101137.45;1868731;76;21078;-67
2020/12/27 23:11:00;;;;;;;19.12;13.53;;;;;;;-2.33;77.34;101137.86;1791305;80;22019;-67
2020/12/27 23:13:28;;;;;;;19.20;13.18;;;;;;;-2.31;77.24;101141.31;1796572;79;21153;-66
2020/12/27 23:15:55;;;;;;;22.98;15.25;;;;;;;-2.29;77.22;101145.16;1776698;80;21079;-66
2020/12/27 23:18:23;;;;;;;21.45;14.85;;;;;;;-2.28;77.11;101158.52;1803902;79;21063;-66
2020/12/27 23:20:51;;;;;;;19.90;13.28;;;;;;;-2.28;77.07;101153.34;1793254;80;21111;-66
2020/12/27 23:23:19;;;;;;;24.35;16.17;;;;;;;-2.29;76.95;101147.75;1849626;77;21888;-66
2020/12/27 23:25:46;;;;;;;20.62;14.13;;;;;;;-2.30;76.91;101137.84;1849619;77;21511;-66
2020/12/27 23:28:14;;;;;;;22.05;14.15;;;;;;;-2.32;76.86;101141.75;1849611;77;21128;-67
2020/12/27 23:30:42;;;;;;;19.67;13.30;;;;;;;-2.34;76.78;101126.66;1782383;80;21146;-66
2020/12/27 23:33:11;;;;;;;18.07;12.65;;;;;;;-2.35;76.74;101120.22;1834810;78;21094;-69
2020/12/27 23:35:39;;;;;;;23.30;14.93;;;;;;;-2.35;76.70;101125.39;1834792;78;21364;-66
2020/12/27 23:38:07;;;;;;;20.30;13.90;;;;;;;-2.38;76.70;101127.59;1834765;77;21047;-66
2020/12/27 23:40:36;;;;;;;21.80;13.93;;;;;;;-2.39;76.68;101127.19;1832139;77;21047;-66
2020/12/27 23:43:04;;;;;;;18.50;13.18;;;;;;;-2.39;76.67;101127.63;1784156;77;21559;-67
2020/12/27 23:45:32;;;;;;;21.35;13.85;;;;;;;-2.40;76.67;101121.59;1762185;81;21114;-67
2020/12/27 23:48:02;;;;;;;18.48;12.47;;;;;;;-2.40;76.67;101120.74;1768461;80;21880;-67
2020/12/27 23:50:33;;;;;;;17.90;12.63;;;;;;;-2.39;76.69;101123.74;1778266;80;21086;-67
2020/12/27 23:53:02;;;;;;;20.50;14.05;;;;;;;-2.38;76.67;101117.25;1778570;80;21091;-67
2020/12/27 23:55:30;;;;;;;19.32;12.93;;;;;;;-2.36;76.64;101118.52;1843122;77;21093;-67
2020/12/27 23:57:58;;;;;;;24.82;15.72;;;;;;;-2.34;76.58;101118.90;1843114;77;21575;-67
